createdAt,value
2022-10-03T00:00:22.652Z,7.03
2022-10-03T00:02:56.023Z,7.07
2022-10-03T00:05:38.740Z,7.27
2022-10-03T00:08:15.334Z,7.30
2022-10-03T00:10:58.103Z,8.33
2022-10-03T00:13:34.795Z,8.77
2022-10-03T00:16:13.366Z,8.40
2022-10-03T00:18:54.995Z,8.57
2022-10-03T00:21:22.252Z,8.60
2022-10-03T00:24:01.806Z,8.90
2022-10-03T00:26:47.904Z,7.80
2022-10-03T00:29:26.525Z,8.13
2022-10-03T00:32:03.227Z,8.07
2022-10-03T00:34:39.990Z,7.70
2022-10-03T00:37:27.461Z,7.57
2022-10-03T00:40:14.306Z,8.00
2022-10-03T00:42:54.558Z,8.20
2022-10-03T00:45:40.683Z,8.90
2022-10-03T00:48:26.471Z,8.70
2022-10-03T00:50:56.761Z,8.63
2022-10-03T00:53:30.071Z,8.50
2022-10-03T00:56:03.631Z,9.30
2022-10-03T00:58:39.289Z,9.53
2022-10-03T01:01:26.907Z,10.87
2022-10-03T01:03:57.207Z,10.83
2022-10-03T01:06:27.916Z,10.60
2022-10-03T01:09:27.766Z,9.70
2022-10-03T01:12:17.663Z,9.93
2022-10-03T01:14:51.457Z,9.17
2022-10-03T01:17:25.044Z,9.80
2022-10-03T01:20:10.667Z,9.60
2022-10-03T01:23:07.617Z,9.53
2022-10-03T01:25:50.486Z,10.47
2022-10-03T01:29:12.490Z,10.27
2022-10-03T01:31:59.402Z,10.40
2022-10-03T01:34:30.255Z,10.93
2022-10-03T01:37:17.033Z,11.23
2022-10-03T01:39:50.572Z,10.83
2022-10-03T01:42:41.309Z,9.40
2022-10-03T01:45:13.359Z,9.97
2022-10-03T01:47:48.380Z,10.23
2022-10-03T01:50:25.532Z,10.37
2022-10-03T01:53:05.186Z,10.30
2022-10-03T01:55:50.739Z,10.10
2022-10-03T01:58:27.193Z,10.50
2022-10-03T02:00:59.196Z,9.77
2022-10-03T02:03:35.654Z,9.93
2022-10-03T02:06:22.275Z,10.90
2022-10-03T02:08:49.741Z,9.77
2022-10-03T02:11:43.728Z,10.03
2022-10-03T02:14:11.173Z,11.33
2022-10-03T02:16:45.102Z,10.90
2022-10-03T02:19:25.024Z,10.33
2022-10-03T02:21:54.127Z,10.53
2022-10-03T02:24:28.045Z,10.60
2022-10-03T02:27:34.367Z,10.43
2022-10-03T02:30:01.997Z,10.00
2022-10-03T02:33:04.407Z,11.13
2022-10-03T02:35:31.600Z,10.50
2022-10-03T02:38:17.702Z,10.57
2022-10-03T02:40:51.006Z,10.10
2022-10-03T02:43:31.895Z,9.63
2022-10-03T02:46:05.397Z,10.47
2022-10-03T02:48:51.411Z,9.60
2022-10-03T02:51:27.735Z,9.63
2022-10-03T02:54:12.629Z,9.07
2022-10-03T02:56:53.006Z,9.20
2022-10-03T02:59:41.758Z,8.73
2022-10-03T03:02:29.351Z,8.93
2022-10-03T03:04:56.731Z,10.03
2022-10-03T03:07:38.403Z,9.33
2022-10-03T03:10:08.764Z,9.43
2022-10-03T03:12:41.385Z,9.70
2022-10-03T03:15:27.412Z,9.40
2022-10-03T03:18:04.345Z,9.23
2022-10-03T03:20:41.572Z,8.70
2022-10-03T03:23:14.952Z,8.90
2022-10-03T03:25:48.361Z,8.23
2022-10-03T03:28:41.988Z,9.57
2022-10-03T03:31:17.335Z,9.13
2022-10-03T03:33:44.589Z,9.50
2022-10-03T03:36:18.445Z,9.50
2022-10-03T03:38:52.013Z,9.10
2022-10-03T03:41:19.363Z,10.20
2022-10-03T03:43:46.648Z,9.43
2022-10-03T03:46:20.985Z,9.70
2022-10-03T03:48:49.096Z,9.57
2022-10-03T03:51:19.360Z,9.77
2022-10-03T03:54:06.998Z,10.17
2022-10-03T03:56:44.707Z,9.33
2022-10-03T03:59:30.511Z,9.20
2022-10-03T04:02:27.652Z,9.33
2022-10-03T04:05:15.130Z,9.13
2022-10-03T04:08:01.123Z,8.63
2022-10-03T04:10:28.341Z,9.87
2022-10-03T04:13:34.519Z,10.60
2022-10-03T04:16:11.011Z,10.33
2022-10-03T04:18:58.961Z,9.87
2022-10-03T04:21:45.675Z,9.63
2022-10-03T04:24:31.632Z,9.63
2022-10-03T04:27:02.085Z,9.03
2022-10-03T04:29:47.077Z,10.67
2022-10-03T04:32:17.380Z,10.00
2022-10-03T04:34:57.022Z,10.37
2022-10-03T04:37:33.487Z,10.40
2022-10-03T04:40:19.629Z,9.47
2022-10-03T04:42:53.271Z,8.87
2022-10-03T04:45:20.564Z,10.60
2022-10-03T04:47:57.897Z,10.60
2022-10-03T04:50:45.424Z,9.57
2022-10-03T04:53:30.376Z,9.13
2022-10-03T04:56:06.323Z,9.80
2022-10-03T04:58:33.594Z,9.90
2022-10-03T05:01:07.684Z,9.93
2022-10-03T05:03:35.003Z,10.20
2022-10-03T05:06:07.104Z,11.07
2022-10-03T05:08:38.938Z,9.97
2022-10-03T05:11:18.880Z,11.07
2022-10-03T05:14:05.715Z,10.60
2022-10-03T05:16:43.126Z,10.47
2022-10-03T05:19:29.419Z,10.50
2022-10-03T05:22:00.347Z,10.67
2022-10-03T05:24:38.190Z,11.07
2022-10-03T05:27:25.762Z,11.23
2022-10-03T05:29:59.717Z,10.93
2022-10-03T05:32:31.997Z,12.30
2022-10-03T05:35:26.255Z,11.90
2022-10-03T05:37:53.429Z,10.97
2022-10-03T05:40:28.498Z,8.87
2022-10-03T05:43:12.407Z,8.63
2022-10-03T05:45:39.628Z,9.30
2022-10-03T05:48:07.052Z,8.73
2022-10-03T05:50:38.446Z,10.00
2022-10-03T05:53:21.042Z,10.70
2022-10-03T05:56:00.844Z,12.33
2022-10-03T05:58:47.094Z,12.37
2022-10-03T06:01:23.499Z,13.37
2022-10-03T06:04:06.112Z,13.70
2022-10-03T06:06:33.760Z,15.10
2022-10-03T06:09:07.038Z,13.27
2022-10-03T06:11:40.697Z,11.63
2022-10-03T06:14:08.398Z,12.40
2022-10-03T06:16:45.032Z,12.60
2022-10-03T06:19:17.234Z,15.57
2022-10-03T06:21:47.503Z,14.37
2022-10-03T06:24:21.208Z,12.87
2022-10-03T06:26:59.858Z,11.63
2022-10-03T06:29:46.438Z,11.50
2022-10-03T06:32:31.892Z,12.20
2022-10-03T06:35:30.902Z,11.93
2022-10-03T06:38:01.471Z,12.90
2022-10-03T06:40:48.510Z,14.20
2022-10-03T06:43:19.399Z,13.87
2022-10-03T06:46:05.441Z,13.27
2022-10-03T06:48:44.915Z,13.00
2022-10-03T06:51:15.735Z,12.97
2022-10-03T06:53:55.648Z,20.00
2022-10-03T06:56:44.208Z,14.67
2022-10-03T06:59:22.903Z,13.90
2022-10-03T07:01:50.842Z,13.67
2022-10-03T07:04:24.409Z,13.53
2022-10-03T07:06:54.572Z,12.83
2022-10-03T07:09:40.764Z,12.83
2022-10-03T07:12:34.961Z,13.03
2022-10-03T07:15:38.080Z,12.60
2022-10-03T07:18:15.933Z,11.53
2022-10-03T07:20:59.335Z,12.03
2022-10-03T07:23:32.908Z,12.23
2022-10-03T07:26:18.893Z,12.70
2022-10-03T07:29:04.915Z,12.43
2022-10-03T07:31:34.923Z,12.27
2022-10-03T07:34:34.889Z,11.13
2022-10-03T07:37:29.845Z,11.80
2022-10-03T07:40:13.629Z,11.17
2022-10-03T07:42:46.081Z,10.97
2022-10-03T07:45:34.852Z,9.43
2022-10-03T07:48:13.165Z,9.47
2022-10-03T07:50:59.439Z,9.67
2022-10-03T07:53:45.623Z,10.60
2022-10-03T07:56:25.496Z,10.47
2022-10-03T07:58:53.302Z,10.20
2022-10-03T08:01:39.615Z,10.67
2022-10-03T08:04:10.238Z,11.13
2022-10-03T08:06:42.350Z,10.50
2022-10-03T08:09:18.900Z,8.70
2022-10-03T08:12:05.437Z,9.13
2022-10-03T08:14:39.690Z,7.20
2022-10-03T08:17:25.811Z,7.80
2022-10-03T08:19:53.186Z,7.87
2022-10-03T08:22:20.378Z,7.50
2022-10-03T08:24:47.949Z,7.50
2022-10-03T08:27:24.339Z,7.83
2022-10-03T08:29:57.674Z,6.37
2022-10-03T08:32:36.688Z,7.20
2022-10-03T08:35:21.802Z,7.97
2022-10-03T08:37:55.835Z,7.43
2022-10-03T08:40:41.775Z,7.70
2022-10-03T08:43:28.039Z,6.70
2022-10-03T08:46:01.576Z,6.40
2022-10-03T08:48:49.018Z,5.53
2022-10-03T08:51:26.325Z,5.60
2022-10-03T08:54:03.936Z,5.85
2022-10-03T08:56:42.752Z,5.68
2022-10-03T08:59:10.053Z,6.35
2022-10-03T09:01:43.875Z,6.10
2022-10-03T09:04:30.553Z,6.20
2022-10-03T09:07:17.925Z,6.10
2022-10-03T09:10:08.328Z,6.60
2022-10-03T09:12:35.881Z,6.30
2022-10-03T09:15:12.436Z,5.77
2022-10-03T09:17:42.826Z,5.30
2022-10-03T09:20:13.645Z,4.97
2022-10-03T09:22:47.142Z,4.20
2022-10-03T09:25:35.070Z,4.80
2022-10-03T09:28:05.593Z,5.13
2022-10-03T09:30:32.820Z,4.80
2022-10-03T09:33:09.313Z,4.80
2022-10-03T09:35:36.593Z,4.50
2022-10-03T09:38:03.776Z,4.27
2022-10-03T09:40:37.125Z,4.00
2022-10-03T09:43:04.327Z,4.05
2022-10-03T09:45:50.623Z,3.67
2022-10-03T09:48:45.393Z,3.70
2022-10-03T09:51:22.103Z,4.07
2022-10-03T09:54:19.800Z,3.42
2022-10-03T09:56:56.456Z,3.40
2022-10-03T09:59:23.800Z,4.10
2022-10-03T10:02:09.697Z,3.88
2022-10-03T10:04:54.153Z,4.20
2022-10-03T10:07:37.558Z,4.25
2022-10-03T10:10:12.867Z,4.28
2022-10-03T10:12:40.241Z,3.75
2022-10-03T10:15:19.086Z,3.20
2022-10-03T10:18:18.085Z,3.20
2022-10-03T10:20:48.409Z,3.58
2022-10-03T10:23:15.636Z,3.33
2022-10-03T10:26:01.953Z,3.47
2022-10-03T10:28:47.642Z,3.47
2022-10-03T10:31:17.911Z,3.00
2022-10-03T10:33:48.334Z,2.80
2022-10-03T10:36:34.597Z,3.95
2022-10-03T10:39:04.964Z,4.13
2022-10-03T10:41:46.535Z,4.20
2022-10-03T10:44:32.763Z,3.67
2022-10-03T10:47:03.727Z,3.30
2022-10-03T10:49:33.993Z,3.88
2022-10-03T10:52:19.891Z,3.67
2022-10-03T10:54:56.697Z,4.53
2022-10-03T10:57:30.341Z,3.40
2022-10-03T11:00:16.418Z,3.80
2022-10-03T11:02:46.955Z,3.78
2022-10-03T11:05:17.611Z,4.10
2022-10-03T11:07:54.136Z,3.28
2022-10-03T11:10:34.949Z,3.05
2022-10-03T11:13:24.466Z,3.80
2022-10-03T11:16:15.469Z,3.97
2022-10-03T11:18:56.356Z,3.70
2022-10-03T11:21:34.836Z,3.53
2022-10-03T11:24:07.478Z,3.38
2022-10-03T11:26:56.893Z,3.78
2022-10-03T11:29:34.387Z,3.15
2022-10-03T11:32:20.674Z,3.25
2022-10-03T11:35:00.760Z,3.42
2022-10-03T11:37:42.862Z,3.28
2022-10-03T11:40:31.104Z,3.40
2022-10-03T11:43:01.588Z,2.97
2022-10-03T11:45:36.850Z,3.35
2022-10-03T11:48:17.107Z,2.85
2022-10-03T11:54:36.228Z,2.88
2022-10-03T11:57:14.533Z,2.67
2022-10-03T12:00:10.759Z,2.97
2022-10-03T12:02:44.398Z,2.45
2022-10-03T12:05:15.023Z,2.45
2022-10-03T12:08:14.708Z,2.83
2022-10-03T12:11:00.920Z,2.50
2022-10-03T12:13:40.141Z,2.65
2022-10-03T12:16:13.095Z,2.80
2022-10-03T12:18:44.223Z,2.35
2022-10-03T12:21:14.778Z,2.53
2022-10-03T12:23:56.151Z,2.50
2022-10-03T12:26:29.717Z,2.63
2022-10-03T12:28:59.204Z,2.83
2022-10-03T12:31:38.730Z,2.50
2022-10-03T12:34:41.914Z,2.42
2022-10-03T12:37:27.149Z,2.38
2022-10-03T12:40:07.270Z,2.75
2022-10-03T12:42:38.093Z,2.65
2022-10-03T12:45:12.284Z,2.55
2022-10-03T12:47:55.346Z,2.80
2022-10-03T12:50:33.701Z,2.30
2022-10-03T12:53:13.640Z,2.25
2022-10-03T12:55:45.400Z,2.45
2022-10-03T12:58:31.701Z,2.47
2022-10-03T13:01:01.994Z,2.88
2022-10-03T13:03:52.292Z,3.00
2022-10-03T13:06:38.815Z,2.92
2022-10-03T13:09:10.783Z,2.83
2022-10-03T13:12:06.527Z,2.42
2022-10-03T13:14:41.481Z,2.85
2022-10-03T13:17:14.790Z,2.75
2022-10-03T13:19:55.882Z,3.03
2022-10-03T13:22:26.208Z,2.67
2022-10-03T13:25:02.798Z,2.75
2022-10-03T13:27:33.367Z,3.10
2022-10-03T13:30:14.410Z,2.72
2022-10-03T13:32:43.757Z,3.15
2022-10-03T13:35:38.897Z,3.08
2022-10-03T13:38:23.689Z,2.95
2022-10-03T13:40:57.570Z,2.70
2022-10-03T13:43:28.849Z,2.63
2022-10-03T13:45:57.233Z,2.70
2022-10-03T13:48:27.574Z,2.88
2022-10-03T13:51:07.300Z,2.67
2022-10-03T13:53:53.301Z,2.80
2022-10-03T13:56:40.055Z,2.45
2022-10-03T13:59:39.854Z,2.95
2022-10-03T14:02:27.277Z,2.83
2022-10-03T14:05:14.109Z,2.45
2022-10-03T14:07:44.377Z,2.60
2022-10-03T14:10:32.981Z,2.60
2022-10-03T14:13:20.797Z,2.55
2022-10-03T14:15:58.380Z,2.40
2022-10-03T14:18:38.912Z,2.40
2022-10-03T14:21:09.232Z,2.60
2022-10-03T14:23:42.245Z,2.22
2022-10-03T14:26:18.647Z,2.35
2022-10-03T14:28:52.837Z,2.00
2022-10-03T14:31:39.135Z,2.53
2022-10-03T14:34:25.598Z,2.30
2022-10-03T14:36:56.503Z,2.40
2022-10-03T14:39:36.446Z,2.40
2022-10-03T14:42:04.418Z,2.28
2022-10-03T14:44:37.911Z,2.30
2022-10-03T14:47:13.298Z,2.30
2022-10-03T14:49:57.551Z,2.53
2022-10-03T14:52:28.672Z,2.40
2022-10-03T14:54:57.371Z,2.25
2022-10-03T14:57:43.659Z,2.67
2022-10-03T15:00:34.858Z,2.83
2022-10-03T15:03:38.796Z,2.90
2022-10-03T15:06:20.890Z,2.50
2022-10-03T15:08:50.648Z,2.78
2022-10-03T15:11:24.149Z,3.10
2022-10-03T15:13:55.091Z,2.83
2022-10-03T15:16:23.295Z,2.70
2022-10-03T15:18:52.953Z,2.40
2022-10-03T15:21:20.247Z,3.03
2022-10-03T15:23:47.945Z,2.80
2022-10-03T15:26:19.018Z,2.60
2022-10-03T15:28:48.314Z,2.90
2022-10-03T15:31:35.879Z,2.67
2022-10-03T15:34:06.203Z,2.55
2022-10-03T15:36:37.855Z,2.75
2022-10-03T15:39:23.968Z,3.08
2022-10-03T15:42:08.023Z,3.17
2022-10-03T15:44:40.196Z,2.95
2022-10-03T15:47:14.056Z,2.80
2022-10-03T15:49:50.901Z,3.20
2022-10-03T15:52:20.282Z,3.00
2022-10-03T15:55:14.372Z,2.80
2022-10-03T15:57:45.478Z,2.97
2022-10-03T16:00:33.093Z,3.63
2022-10-03T16:03:15.707Z,3.10
2022-10-03T16:06:03.197Z,3.38
2022-10-03T16:08:32.105Z,3.45
2022-10-03T16:11:19.140Z,3.40
2022-10-03T16:13:49.467Z,3.20
2022-10-03T16:16:24.362Z,3.83
2022-10-03T16:19:14.766Z,3.40
2022-10-03T16:21:42.432Z,3.47
2022-10-03T16:24:20.392Z,3.80
2022-10-03T16:26:56.334Z,3.63
2022-10-03T16:29:26.266Z,3.90
2022-10-03T16:31:59.027Z,3.65
2022-10-03T16:34:27.263Z,4.18
2022-10-03T16:36:54.996Z,3.78
2022-10-03T16:39:27.831Z,4.45
2022-10-03T16:41:55.703Z,4.20
2022-10-03T16:44:23.058Z,4.18
2022-10-03T16:46:51.630Z,4.30
2022-10-03T16:49:55.886Z,4.32
2022-10-03T16:52:32.447Z,4.70
2022-10-03T16:55:02.979Z,4.80
2022-10-03T16:57:33.825Z,5.00
2022-10-03T17:00:08.268Z,5.20
2022-10-03T17:02:39.019Z,5.90
2022-10-03T17:05:10.957Z,5.20
2022-10-03T17:07:43.303Z,9.43
2022-10-03T17:10:30.311Z,9.37
2022-10-03T17:13:03.594Z,10.30
2022-10-03T17:15:37.095Z,7.37
2022-10-03T17:18:04.516Z,5.83
2022-10-03T17:20:38.404Z,5.22
2022-10-03T17:23:10.555Z,6.27
2022-10-03T17:25:37.944Z,5.97
2022-10-03T17:28:06.859Z,9.73
2022-10-03T17:30:39.094Z,6.43
2022-10-03T17:33:14.364Z,7.40
2022-10-03T17:35:47.169Z,67.17
2022-10-03T17:38:48.354Z,16.40
2022-10-03T17:41:16.602Z,12.83
2022-10-03T17:43:51.164Z,7.50
2022-10-03T17:46:18.464Z,6.60
2022-10-03T17:49:22.013Z,7.10
2022-10-03T17:51:50.872Z,7.37
2022-10-03T17:54:20.893Z,6.73
2022-10-03T17:56:55.777Z,6.73
2022-10-03T17:59:29.842Z,7.27
2022-10-03T18:01:59.675Z,7.90
2022-10-03T18:04:36.889Z,6.10
2022-10-03T18:07:16.567Z,8.10
2022-10-03T18:09:47.464Z,6.63
2022-10-03T18:12:25.748Z,6.63
2022-10-03T18:15:02.654Z,5.87
2022-10-03T18:17:39.698Z,5.70
2022-10-03T18:20:26.724Z,9.83
2022-10-03T18:22:58.012Z,7.77
2022-10-03T18:26:18.694Z,7.23
2022-10-03T18:28:57.691Z,5.90
2022-10-03T18:31:26.031Z,5.90
2022-10-03T18:33:59.515Z,6.17
2022-10-03T18:36:28.579Z,5.50
2022-10-03T18:38:59.997Z,6.23
2022-10-03T18:41:27.525Z,6.20
2022-10-03T18:43:59.875Z,5.93
2022-10-03T18:46:30.330Z,6.60
2022-10-03T18:49:30.115Z,6.43
2022-10-03T18:51:52.693Z,6.37
2022-10-03T18:54:33.633Z,6.70
2022-10-03T18:57:16.192Z,6.60
2022-10-03T18:59:52.897Z,6.80
2022-10-03T19:02:25.592Z,8.70
2022-10-03T19:04:55.138Z,9.27
2022-10-03T19:07:31.917Z,9.30
2022-10-03T19:10:35.159Z,7.77
2022-10-03T19:13:06.317Z,8.97
2022-10-03T19:15:38.667Z,7.80
2022-10-03T19:18:33.856Z,7.93
2022-10-03T19:21:04.310Z,7.63
2022-10-03T19:23:31.587Z,7.50
2022-10-03T19:26:02.484Z,7.80
2022-10-03T19:28:34.852Z,7.20
2022-10-03T19:31:22.352Z,7.13
2022-10-03T19:33:51.236Z,7.33
2022-10-03T19:36:21.905Z,7.33
2022-10-03T19:38:49.900Z,6.77
2022-10-03T19:41:28.427Z,6.73
2022-10-03T19:43:57.007Z,7.77
2022-10-03T19:46:33.412Z,8.37
2022-10-03T19:49:03.813Z,7.87
2022-10-03T19:51:31.208Z,7.53
2022-10-03T19:53:59.979Z,6.87
2022-10-03T19:56:28.375Z,6.73
2022-10-03T19:59:16.384Z,7.23
2022-10-03T20:01:44.743Z,6.27
2022-10-03T20:04:12.782Z,7.00
2022-10-03T20:06:46.089Z,6.90
2022-10-03T20:09:27.269Z,7.17
2022-10-03T20:11:57.692Z,7.00
2022-10-03T20:14:30.110Z,8.43
2022-10-03T20:17:02.155Z,8.30
2022-10-03T20:19:55.953Z,8.50
2022-10-03T20:22:25.341Z,7.40
2022-10-03T20:24:52.788Z,7.77
2022-10-03T20:27:33.186Z,7.97
2022-10-03T20:30:00.505Z,8.30
2022-10-03T20:32:28.660Z,8.30
2022-10-03T20:34:58.555Z,8.40
2022-10-03T20:37:48.092Z,8.90
2022-10-03T20:40:31.003Z,7.27
2022-10-03T20:43:24.678Z,7.73
2022-10-03T20:46:04.124Z,7.50
2022-10-03T20:48:34.118Z,7.20
2022-10-03T20:51:01.669Z,6.13
2022-10-03T20:53:30.070Z,6.60
2022-10-03T20:56:01.035Z,8.73
2022-10-03T20:58:50.828Z,6.63
2022-10-03T21:01:20.474Z,6.80
2022-10-03T21:04:06.484Z,6.10
2022-10-03T21:06:37.309Z,5.30
2022-10-03T21:09:06.309Z,6.50
2022-10-03T21:11:34.185Z,6.27
2022-10-03T21:14:08.083Z,5.10
2022-10-03T21:16:39.834Z,8.30
2022-10-03T21:19:19.454Z,6.83
2022-10-03T21:21:49.243Z,7.90
2022-10-03T21:24:27.474Z,8.73
2022-10-03T21:26:59.188Z,7.97
2022-10-03T21:29:28.691Z,7.63
2022-10-03T21:32:05.234Z,7.17
2022-10-03T21:34:38.637Z,7.37
2022-10-03T21:37:08.845Z,7.37
2022-10-03T21:40:00.172Z,5.67
2022-10-03T21:42:42.729Z,6.33
2022-10-03T21:45:31.786Z,6.30
2022-10-03T21:48:05.597Z,7.60
2022-10-03T21:50:36.392Z,6.70
2022-10-03T21:53:16.302Z,6.90
2022-10-03T21:55:52.780Z,9.30
2022-10-03T21:58:29.780Z,6.73
2022-10-03T22:01:04.825Z,6.53
2022-10-03T22:03:41.743Z,6.87
2022-10-03T22:06:21.417Z,6.23
2022-10-03T22:08:49.502Z,6.43
2022-10-03T22:11:26.031Z,6.37
2022-10-03T22:14:13.592Z,6.50
2022-10-03T22:17:08.358Z,7.53
2022-10-03T22:19:46.541Z,8.93
2022-10-03T22:22:34.329Z,6.37
2022-10-03T22:25:25.420Z,6.43
2022-10-03T22:28:05.235Z,29.40
2022-10-03T22:30:34.741Z,16.93
2022-10-03T22:33:23.501Z,7.37
2022-10-03T22:35:55.497Z,8.53
2022-10-03T22:38:24.378Z,9.20
2022-10-03T22:40:51.829Z,7.90
2022-10-03T22:43:19.912Z,8.43
2022-10-03T22:45:49.749Z,5.40
2022-10-03T22:48:23.291Z,9.13
2022-10-03T22:50:51.818Z,14.97
2022-10-03T22:53:20.547Z,10.50
2022-10-03T22:55:49.764Z,21.60
2022-10-03T22:58:18.240Z,16.77
2022-10-03T23:00:46.833Z,16.57
2022-10-03T23:03:25.865Z,19.23
2022-10-03T23:06:11.948Z,5.40
2022-10-03T23:09:01.626Z,14.60
2022-10-03T23:11:30.440Z,17.20
2022-10-03T23:13:59.719Z,16.43
2022-10-03T23:16:44.230Z,15.20
2022-10-03T23:19:14.530Z,12.13
2022-10-03T23:21:49.400Z,10.40
2022-10-03T23:24:16.694Z,10.87
2022-10-03T23:27:07.135Z,10.40
2022-10-03T23:29:34.345Z,9.40
2022-10-03T23:32:01.602Z,8.63
2022-10-03T23:34:38.137Z,8.30
2022-10-03T23:37:15.593Z,7.73
2022-10-03T23:39:55.149Z,7.80
2022-10-03T23:42:27.026Z,7.53
2022-10-03T23:44:56.324Z,7.83
2022-10-03T23:47:28.891Z,8.50
2022-10-03T23:49:57.002Z,8.13
2022-10-03T23:52:28.464Z,5.57
2022-10-03T23:54:57.901Z,6.33
2022-10-03T23:57:31.604Z,7.07
2022-10-03T23:59:58.979Z,7.20
